Ride Results

LoVERS Hop To It (19-04-2019)
Ride distance: 80.0 km

Outcomes - LoVERS Hop To It (19-04-2019)
Division No. of Entries Retired / DNE Completed Withdrawn Ineligible V/O Percentage Completed
HW 4 - 4 - - - 100.00%
MW 11 - 8 - - 3 72.73%
LW 8 - 7 - - 1 87.50%
JN 13 - 12 - - 1 92.31%
Totals 36 - 31 - - 5 86.11%
Results - LoVERS Hop To It (19-04-2019)
No. Rider Horse Place Time Leg Speeds Total
Km/Hr
H/R bpm
Heavyweight
221 Paul Lengronne Ra Silver Dancer 1 (BC) 5:51:00 13.1, 14.2 13.68 36, 44, 48 (Avg:46)
213 Aaron Dymock Matta Mia Dayimi 2 6:09:00 13.5, 12.4 13.01 30, 42, 52 (Avg:47)
216 Olaf Lochtenberg Matta Mia Akbar 3 6:13:00 13.1, 12.6 12.87 39, 47, 49 (Avg:48)
239 Angela Waldock Indiana Seabreeze 4 6:52:00 11.2, 12.0 11.65 40, 45, 48 (Avg:46)
Middleweight
227 Jo Barsby Dumaresq Platinum 1 5:01:00 16.3, 15.5 15.95 38, 42, 47 (Avg:44)
243 Jill Free Kadar Silkk 1 (BC) 5:01:00 16.6, 15.2 15.95 35, 43, 40 (Avg:41)
224 Marion Lengronne Kalkadoon Vienna 3 5:51:00 13.1, 14.2 13.68 31, 42, 42 (Avg:42)
223 Samantha Yates Splendacrest Zafire 4 6:14:00 12.6, 13.0 12.83 32, 42, 39 (Avg:40)
240 Fiona Fenech Bangalow Park Coopers Lad 5 6:52:00 11.2, 12.0 11.65 44, 46, 46 (Avg:46)
234 Barb Woods Savannah Mighty Rockstar 6 7:38:00 10.8, 10.1 10.48 38, 42, 49 (Avg:45)
233 Jo Bailey Churinga Trickortreat 7 8:04:00 11.0, 9.0 9.92 40, 47, 50 (Avg:48)
241 Judith Burton Woodbourne Sierra 7 8:04:00 11.0, 9.0 9.92 34, 43, 52 (Avg:47)
214 Linda Lochtenberg Matta Mia Kassanova Lame L2 6:09:00 13.5, 12.4 13.01 33, 48, 47 (Avg:47)
246 David Urquhart Wallaby Jones te Lame L2 6:34:00 11.1, 13.4 12.18 30, 37, 36 (Avg:36)
217 Rachel Brown Houdini Lame L1 2:24:00 16.6 16.67 48, 52 (Avg:52)
Lightweight
206 Sammie Brooker Hirstglen Zeus 1 (BC) 5:43:00 12.6, 15.6 13.99 36, 42, 53 (Avg:47)
237 Xanthe Webb Keiko Kashmir Sapphire 2 6:24:00 12.7, 12.2 12.50 34, 40, 43 (Avg:41)
211 Shelley Chapman Catch Me If You Can 3 6:57:00 10.8, 12.3 11.51 30, 38, 37 (Avg:37)
236 Maeve Paten Larntainey Silver Treasure 3 6:57:00 10.8, 12.3 11.51 29, 39, 41 (Avg:40)
231 Brittney McInnes Judstan Reynbeau 5 7:29:00 10.9, 10.4 10.69 41, 52, 60 (Avg:56)
230 Jorja McInnes Saxon KA 5 7:29:00 10.9, 10.4 10.69 36, 43, 42 (Avg:42)
235 Pandora Bevan My Fair Lady 7 7:38:00 10.8, 10.1 10.48 43, 45, 45 (Avg:45)
208 Sharn Brooker Hazeldean Jamahl Lame L1 3:10:00 12.6 12.63 35, 39 (Avg:39)
Junior
201 Scarlet McQueen Kynnum Park Mr Epona 1 (BC) 5:52:00 13.1, 14.2 13.64 32, 36, 42 (Avg:39)
215 Tahlea Lochtenberg Henley Farm Nadif 2 6:13:00 13.1, 12.6 12.87 31, 44, 60 (Avg:52)
226 Charlize Renner Edenfels M J 2 6:13:00 13.0, 12.6 12.87 32, 46, 52 (Avg:49)
228 Sam Long Dumaresq Vaquero 4 6:14:00 12.6, 13.0 12.83 43, 38, 40 (Avg:39)
225 Emily Picker Windcharm LEA 4 6:14:00 12.6, 13.0 12.83 34, 48, 50 (Avg:49)
218 Ben Hoey Monarch Park Cimarron 6 6:18:00 12.3, 13.1 12.70 42, 45, 47 (Avg:46)
220 Adi Imray Glenewan Suprise 6 6:18:00 12.6, 12.7 12.70 38, 45, 57 (Avg:51)
222 Joey Long De-Sharvarll El Dakar 6 6:18:00 12.3, 13.1 12.70 46, 40, 40 (Avg:40)
238 Lexi Webb Bremervale Winchester 9 6:24:00 12.7, 12.2 12.50 28, 41, 41 (Avg:41)
229 Eadie McWilliam Samantha te 10 6:57:00 10.8, 12.3 11.51 33, 42, 42 (Avg:42)
242 Louis Ryan Sh'Harriet te 11 7:04:00 11.1, 11.4 11.32 36, 42, 45 (Avg:43)
244 Christopher Benstead Rosevale Park Angelo 12 7:17:00 13.7, 9.1 10.98 36, 42, 41 (Avg:41)
245 Jamie Benstead Rosevale Park Sport Lame L2 7:17:00 12.9, 9.5 10.98 38, 45, 46 (Avg:45)